Latest Weather Observations for Coldstream

IDV60801

Issued at 5:05 pm EST Saturday 26 July 2014 (issued every 30 minutes, with the page automatically refreshed every 10 minutes)

About weather observations | Map of weather stations | Latest weather observations for VIC | Other Formats
Station Details ID: 086383 Name: COLDSTREAM Lat: -37.72 Lon: 145.41 Height: 83.0 m
Data from the previous 72 hours. | See also: Recent months at Coldstream
Date/Time
EST
Temp
°C
App
Temp
°C
Dew
Point
Rel
Hum
%
Delta-T
°C
Wind Press
QNH
hPa
Press
MSL
hPa
Rain
since 9 am
mm
Dir
 
Spd
km/h
Gust
km/h
Spd
kts
Gust
kts
26/05:00pm 11.4 11.3 10.8 96 0.3 N 2 7 1 4 1023.7 1023.9 2.8
26/04:30pm 11.5 10.6 10.7 95 0.4 NNE 6 9 3 5 1023.4 - 1.2
26/04:00pm 11.6 10.7 10.8 95 0.4 NE 6 9 3 5 1023.2 1023.4 0.8
26/03:30pm 11.7 11.2 10.8 94 0.5 NE 4 7 2 4 1023.2 - 0.8
26/03:00pm 11.7 11.9 10.6 93 0.6 CALM 0 0 0 0 1023.1 1023.3 0.8
26/02:30pm 11.7 11.9 10.4 92 0.7 CALM 0 0 0 0 1022.8 - 0.4
26/02:00pm 11.7 11.8 10.1 90 0.8 CALM 0 0 0 0 1022.6 1022.8 0.4
26/01:30pm 11.9 9.0 9.8 87 1.1 W 15 22 8 12 1022.6 - 0.4
26/01:00pm 13.6 10.4 8.4 71 2.6 WNW 15 24 8 13 1022.6 1022.8 0.0
26/12:30pm 14.1 12.3 9.3 73 2.4 WNW 9 15 5 8 1022.9 - 0.0
26/12:00pm 13.5 11.6 9.2 75 2.2 W 9 13 5 7 1023.2 1023.4 0.0
26/11:30am 13.5 11.4 9.6 77 2.0 WNW 11 17 6 9 1023.6 - 0.0
26/11:00am 12.5 10.6 9.0 79 1.8 NW 9 13 5 7 1023.7 1023.9 0.0
26/10:30am 12.0 11.6 9.9 87 1.1 N 2 9 1 5 1023.8 - 0.0
26/10:00am 11.4 11.5 10.1 92 0.7 CALM 0 6 0 3 1023.8 1024.0 0.0
26/09:30am 11.3 11.5 10.5 95 0.4 CALM 0 2 0 1 1023.6 - 0.0
26/09:00am 10.8 10.9 10.3 97 0.3 CALM 0 0 0 0 1023.2 1023.4 1.0
26/08:30am 10.3 10.3 9.7 96 0.3 CALM 0 0 0 0 1022.9 - 1.0
26/08:00am 10.1 10.0 9.3 95 0.4 CALM 0 0 0 0 1022.6 1022.8 1.0
26/07:30am 10.2 10.1 9.4 95 0.4 CALM 0 0 0 0 1022.4 - 0.8
26/07:00am 10.2 10.0 9.1 93 0.5 CALM 0 0 0 0 1022.1 1022.3 0.8
26/06:30am 10.5 10.4 9.4 93 0.5 CALM 0 0 0 0 1021.7 - 0.8
26/06:00am 10.8 9.9 9.2 90 0.8 N 4 7 2 4 1021.3 1021.5 0.6
26/05:30am 11.0 10.1 9.3 89 0.9 N 4 9 2 5 1021.1 - 0.2
26/05:00am 11.0 9.2 9.3 89 0.9 N 9 13 5 7 1020.8 1021.0 0.2
26/04:30am 11.0 9.7 9.1 88 0.9 N 6 7 3 4 1020.6 - 0.2
26/04:00am 11.3 9.4 9.2 87 1.1 N 9 15 5 8 1020.5 1020.7 0.2
26/03:30am 11.3 9.1 9.2 87 1.1 N 11 15 6 8 1020.3 - 0.2
26/03:00am 11.3 9.1 9.4 88 1.0 N 11 17 6 9 1020.4 1020.6 0.2
26/02:30am 11.2 8.9 9.1 87 1.1 N 11 17 6 9 1020.4 - 0.2
26/02:00am 11.6 9.0 9.3 86 1.2 N 13 19 7 10 1020.4 1020.6 0.2
26/01:30am 11.8 9.2 9.4 85 1.2 N 13 20 7 11 1020.2 - 0.2
26/01:00am 11.7 9.2 9.6 87 1.1 N 13 19 7 10 1020.2 1020.4 0.2
26/12:30am 11.8 9.6 9.4 85 1.2 N 11 17 6 9 1020.3 - 0.2
26/12:00am 11.8 10.0 9.4 85 1.2 N 9 11 5 6 1020.2 1020.4 0.2
 
Date/Time
EST
Temp
°C
App
Temp
°C
Dew
Point
Rel
Hum
%
Delta-T
°C
Wind Press
QNH
hPa
Press
MSL
hPa
Rain
since 9 am
mm
Dir
 
Spd
km/h
Gust
km/h
Spd
kts
Gust
kts
25/11:30pm 11.8 9.9 9.2 84 1.3 N 9 13 5 7 1020.1 - 0.2
25/11:00pm 11.7 9.4 9.1 84 1.3 N 11 17 6 9 1020.1 1020.3 0.2
25/10:30pm 12.1 9.4 8.9 81 1.6 N 13 17 7 9 1019.9 - 0.2
25/10:00pm 12.2 9.3 9.6 84 1.3 N 15 20 8 11 1019.9 1020.1 0.2
25/09:30pm 12.2 10.1 9.9 86 1.2 N 11 15 6 8 1019.7 - 0.2
25/09:00pm 12.0 10.4 10.1 88 1.0 N 9 13 5 7 1019.5 1019.7 0.2
25/08:30pm 12.2 10.6 10.1 87 1.1 N 9 17 5 9 1019.4 - 0.2
25/08:00pm 12.6 10.1 9.8 83 1.4 N 13 19 7 10 1019.4 1019.6 0.2
25/07:30pm 12.5 10.4 9.7 83 1.4 N 11 17 6 9 1018.9 - 0.2
25/07:00pm 12.5 10.0 9.7 83 1.4 N 13 20 7 11 1018.6 1018.8 0.2
25/06:30pm 12.7 9.3 9.3 80 1.7 N 17 26 9 14 1018.4 - 0.2
25/06:00pm 12.0 9.0 9.2 83 1.4 N 15 22 8 12 1018.1 1018.3 0.2
25/05:30pm 12.7 10.1 9.5 81 1.6 N 13 19 7 10 1017.6 - 0.2
25/05:00pm 13.2 10.7 9.8 80 1.7 N 13 19 7 10 1017.3 1017.4 0.2
25/04:30pm 14.0 10.4 9.8 76 2.2 N 19 30 10 16 1017.1 - 0.2
25/04:00pm 14.7 10.8 9.5 71 2.7 N 20 30 11 16 1017.0 1017.1 0.2
25/03:30pm 14.4 10.7 9.4 72 2.6 N 19 28 10 15 1016.8 - 0.2
25/03:00pm 14.3 10.5 9.1 71 2.7 N 19 33 10 18 1016.4 1016.5 0.2
25/02:30pm 13.9 9.1 8.9 72 2.5 N 24 32 13 17 1016.1 - 0.2
25/02:00pm 14.6 10.2 8.8 68 2.9 N 22 35 12 19 1016.1 1016.2 0.0
25/01:30pm 15.2 10.2 8.2 63 3.5 N 24 37 13 20 1016.2 - 0.0
25/01:00pm 15.1 10.3 9.0 67 3.1 N 24 35 13 19 1016.3 1016.4 0.0
25/12:30pm 15.0 10.2 8.9 67 3.1 N 24 39 13 21 1016.5 - 0.0
25/12:00pm 15.5 10.8 9.2 66 3.2 N 24 35 13 19 1016.8 1016.9 0.0
25/11:30am 15.5 10.3 9.0 65 3.3 N 26 43 14 23 1017.0 - 0.0
25/11:00am 15.4 11.6 9.7 69 3.0 N 20 30 11 16 1017.0 1017.1 0.0
25/10:30am 13.8 10.1 9.5 75 2.2 N 19 30 10 16 1017.4 - 0.0
25/10:00am 14.0 10.3 9.6 75 2.3 N 19 24 10 13 1017.3 1017.4 0.0
25/09:30am 12.8 8.8 8.9 77 2.0 N 20 32 11 17 1017.0 - 0.0
25/09:00am 12.5 9.0 8.8 78 1.9 N 17 26 9 14 1016.9 1017.0 0.0
25/08:30am 11.8 9.0 8.6 81 1.6 N 13 19 7 10 1016.8 - 0.0
25/08:00am 11.5 8.3 8.4 81 1.5 N 15 22 8 12 1016.1 1016.2 0.0
25/07:30am 11.3 7.7 8.5 83 1.4 N 17 24 9 13 1015.8 - 0.0
25/07:00am 11.2 8.4 8.4 83 1.4 N 13 22 7 12 1015.8 1015.9 0.0
25/06:30am 9.7 7.9 8.1 90 0.8 N 7 11 4 6 1015.5 - 0.0
25/06:00am 9.8 8.0 8.1 89 0.8 N 7 11 4 6 1015.0 1015.1 0.0
25/05:30am 10.3 8.2 8.1 86 1.1 N 9 13 5 7 1014.8 - 0.0
25/05:00am 11.2 9.1 8.2 82 1.5 N 9 15 5 8 1014.6 1014.7 0.0
25/04:30am 11.2 9.4 8.1 81 1.5 NW 7 9 4 5 1014.6 - 0.0
25/04:00am 9.2 8.2 7.5 89 0.8 WSW 2 7 1 4 1014.3 1014.4 0.0
25/03:30am 10.2 8.8 7.4 83 1.3 NNW 4 9 2 5 1014.2 - 0.0
25/03:00am 11.4 9.2 7.7 78 1.8 NNE 9 15 5 8 1013.9 1014.1 0.0
25/02:30am 11.2 8.9 7.5 78 1.8 NNE 9 11 5 6 1013.8 - 0.0
25/02:00am 11.6 9.4 7.7 77 1.9 N 9 13 5 7 1013.8 1014.0 0.0
25/01:30am 11.9 9.3 7.6 75 2.1 NNE 11 15 6 8 1013.8 - 0.0
25/01:00am 12.2 9.6 7.7 74 2.2 NNE 11 15 6 8 1013.7 1013.9 0.0
25/12:30am 12.3 9.7 7.6 73 2.3 NNE 11 19 6 10 1013.6 - 0.0
25/12:00am 11.8 9.5 7.5 75 2.1 NE 9 17 5 9 1013.8 1014.0 0.0
 
Date/Time
EST
Temp
°C
App
Temp
°C
Dew
Point
Rel
Hum
%
Delta-T
°C
Wind Press
QNH
hPa
Press
MSL
hPa
Rain
since 9 am
mm
Dir
 
Spd
km/h
Gust
km/h
Spd
kts
Gust
kts
24/11:30pm 12.3 10.0 7.4 72 2.4 NE 9 17 5 9 1014.3 - 0.0
24/11:00pm 11.9 9.7 6.4 69 2.6 NE 7 13 4 7 1014.2 1014.3 0.0
24/10:30pm 11.7 9.7 6.2 69 2.6 NE 6 9 3 5 1013.9 - 0.0
24/10:00pm 11.9 9.3 6.0 67 2.8 NE 9 17 5 9 1013.8 1014.0 0.0
24/09:30pm 12.2 9.6 6.0 66 2.9 NE 9 17 5 9 1013.8 - 0.0
24/09:00pm 12.6 8.5 6.0 64 3.1 ENE 17 26 9 14 1013.8 1014.0 0.0
24/08:30pm 12.6 8.4 5.8 63 3.2 ENE 17 24 9 13 1013.8 - 0.0
24/08:00pm 12.0 9.4 6.3 68 2.7 NE 9 17 5 9 1013.8 1014.0 0.0
24/07:30pm 10.8 8.6 6.2 73 2.2 ENE 7 13 4 7 1014.1 - 0.0
24/07:00pm 7.3 4.7 4.1 80 1.4 E 7 15 4 8 1013.7 1013.9 0.0
24/06:30pm 11.2 9.1 5.7 69 2.6 NE 6 11 3 6 1013.5 - 0.0
24/06:00pm 12.4 9.4 6.0 65 3.0 ENE 11 17 6 9 1013.2 1013.4 0.0
24/05:30pm 13.2 9.5 6.3 63 3.3 ENE 15 22 8 12 1013.0 - 0.0
24/05:00pm 12.9 9.1 7.4 69 2.7 ENE 17 24 9 13 1013.2 1013.4 0.0
24/04:30pm 12.8 9.7 7.3 69 2.7 ENE 13 22 7 12 1013.4 - 0.0
24/04:00pm 12.7 10.5 8.0 73 2.3 ENE 9 17 5 9 1013.6 1013.8 0.0
24/03:30pm 13.2 11.0 7.9 70 2.6 NE 9 17 5 9 1013.5 - 0.0
24/03:00pm 13.8 11.7 8.2 69 2.8 NE 9 22 5 12 1013.4 1013.6 0.0
24/02:30pm 13.2 11.0 7.9 70 2.6 ENE 9 19 5 10 1013.4 - 0.0
24/02:00pm 12.9 9.2 7.8 71 2.5 ENE 17 24 9 13 1013.6 1013.8 0.0
24/01:30pm 12.8 10.0 8.5 75 2.1 E 13 20 7 11 1013.9 - 0.0
24/01:00pm 12.4 8.6 7.7 73 2.3 ENE 17 28 9 15 1014.7 1014.8 0.0
24/12:30pm 11.8 8.6 8.3 79 1.7 ENE 15 24 8 13 1015.1 - 0.0
24/12:00pm 9.9 7.0 8.3 90 0.8 ESE 13 24 7 13 1015.9 1016.0 0.0
24/11:30am 9.0 7.6 8.9 99 0.0 ESE 6 7 3 4 1016.9 - 0.0
24/11:00am 7.9 7.0 7.8 99 0.0 N 2 7 1 4 1017.4 1017.5 0.0
24/10:30am 7.8 6.9 7.7 99 0.0 NW 2 7 1 4 1017.0 - 0.0
24/10:00am 6.6 5.4 6.5 99 0.0 S 2 6 1 3 1016.9 1017.0 0.0
24/09:30am 5.6 4.6 5.5 99 0.0 CALM 0 0 0 0 1016.8 - 0.0
24/09:00am 4.8 3.6 4.7 99 0.0 CALM 0 0 0 0 1016.7 1016.8 0.0
24/08:30am 4.6 3.0 4.5 99 0.0 WNW 2 7 1 4 1016.7 - 0.0
24/08:00am 4.5 2.9 4.4 99 0.0 S 2 6 1 3 1016.6 1016.7 0.0
24/07:30am 3.6 2.2 3.5 99 0.0 CALM 0 0 0 0 1016.8 - 0.0
24/07:00am 3.2 1.3 3.1 99 0.0 S 2 7 1 4 1016.7 1016.8 0.0
24/06:30am 3.0 1.1 2.9 99 0.0 S 2 7 1 4 1016.8 - 0.0
24/06:00am 2.9 1.0 2.8 99 0.0 S 2 7 1 4 1016.9 1017.0 0.0
24/05:30am 2.1 0.4 2.0 99 0.0 CALM 0 9 0 5 1017.1 - 0.0
24/05:00am 1.4 -0.8 1.3 99 0.0 NW 2 9 1 5 1017.4 1017.5 0.0
24/04:30am 1.6 -0.5 1.5 99 0.0 NW 2 7 1 4 1017.3 - 0.0
24/04:00am 1.6 -0.5 1.5 99 0.0 SSW 2 7 1 4 1017.5 1017.6 0.0
24/03:30am 0.9 -1.0 0.8 99 0.0 CALM 0 4 0 2 1017.3 - 0.0
24/03:00am 1.0 -1.6 0.9 99 0.0 SE 4 7 2 4 1017.5 1017.6 0.0
24/02:30am 1.3 -1.3 1.2 99 0.0 S 4 7 2 4 1017.8 - 0.0
24/02:00am 0.3 -1.7 0.2 99 0.0 CALM 0 0 0 0 1018.1 1018.3 0.0
24/01:30am -0.1 -2.1 -0.2 99 0.0 CALM 0 0 0 0 1018.1 - 0.0
24/01:00am 0.3 -1.7 0.2 99 0.0 CALM 0 6 0 3 1018.2 1018.4 0.0
24/12:30am 0.6 -1.3 0.5 99 0.0 CALM 0 0 0 0 1018.3 - 0.0
24/12:00am 1.6 -0.2 1.5 99 0.0 CALM 0 0 0 0 1018.7 1018.9 0.0
 
Date/Time
EST
Temp
°C
App
Temp
°C
Dew
Point
Rel
Hum
%
Delta-T
°C
Wind Press
QNH
hPa
Press
MSL
hPa
Rain
since 9 am
mm
Dir
 
Spd
km/h
Gust
km/h
Spd
kts
Gust
kts
23/11:30pm 1.9 -0.2 1.8 99 0.0 S 2 7 1 4 1019.0 - 0.0
23/11:00pm 2.3 0.3 2.2 99 0.0 SE 2 7 1 4 1019.2 1019.4 0.0
23/10:30pm 2.9 1.0 2.8 99 0.0 S 2 7 1 4 1019.6 - 0.0
23/10:00pm 3.1 1.6 2.8 98 0.1 CALM 0 0 0 0 1019.8 1020.0 0.0
23/09:30pm 3.9 2.5 3.6 98 0.1 CALM 0 0 0 0 1020.0 - 0.0
23/09:00pm 4.3 3.0 4.0 98 0.1 CALM 0 0 0 0 1020.1 1020.3 0.0
23/08:30pm 4.7 3.4 4.3 97 0.2 CALM 0 0 0 0 1020.2 - 0.0
23/08:00pm 5.4 4.3 5.0 97 0.2 CALM 0 0 0 0 1020.2 1020.4 0.0
23/07:30pm 5.6 3.8 5.2 97 0.2 S 4 7 2 4 1020.3 - 0.0
23/07:00pm 5.7 4.6 5.1 96 0.3 CALM 0 6 0 3 1020.0 1020.2 0.0
23/06:30pm 6.4 5.4 5.5 94 0.4 CALM 0 0 0 0 1019.9 - 0.0
23/06:00pm 6.3 5.2 4.9 91 0.6 CALM 0 0 0 0 1019.8 1020.0 0.0
23/05:30pm 8.4 7.6 6.5 88 0.9 CALM 0 6 0 3 1019.7 - 0.0

Other Formats:

Comma delimited format used in spreadsheet applications
http://www.bom.gov.au/fwo/IDV60801/IDV60801.94864.axf

JavaScript Object Notation format (JSON) in row-major order
http://www.bom.gov.au/fwo/IDV60801/IDV60801.94864.json